createdAt,value
2017-02-14T04:01:06.173Z,1033.71
2017-02-14T04:01:31.781Z,1033.69
2017-02-14T04:01:57.369Z,1033.7
2017-02-14T04:02:22.934Z,1033.71
2017-02-14T04:02:48.524Z,1033.69
2017-02-14T04:03:14.128Z,1033.63
2017-02-14T04:03:39.679Z,1033.66
2017-02-14T04:04:05.219Z,1033.64
2017-02-14T04:04:30.779Z,1033.67
2017-02-14T04:04:56.330Z,1033.68
2017-02-14T04:05:21.941Z,1033.68
2017-02-14T04:05:47.506Z,1033.67
2017-02-14T04:06:13.054Z,1033.67
2017-02-14T04:06:38.674Z,1033.65
2017-02-14T04:07:04.254Z,1033.65
2017-02-14T04:07:29.818Z,1033.71
2017-02-14T04:07:55.411Z,1033.69
2017-02-14T04:08:20.976Z,1033.69
2017-02-14T04:08:46.547Z,1033.73
2017-02-14T04:09:12.123Z,1033.7
2017-02-14T04:09:37.709Z,1033.68
2017-02-14T04:10:03.272Z,1033.7
2017-02-14T04:10:28.877Z,1033.68
2017-02-14T04:10:54.492Z,1033.69
2017-02-14T04:11:20.047Z,1033.7
2017-02-14T04:11:45.725Z,1033.65
2017-02-14T04:12:11.376Z,1033.72
2017-02-14T04:12:36.957Z,1033.74
2017-02-14T04:13:02.760Z,1033.7
2017-02-14T04:13:28.364Z,1033.73
2017-02-14T04:13:53.917Z,1033.69
2017-02-14T04:14:19.466Z,1033.69
2017-02-14T04:14:45.020Z,1033.72
2017-02-14T04:15:10.564Z,1033.65
2017-02-14T04:15:36.125Z,1033.65
2017-02-14T04:16:01.748Z,1033.67
2017-02-14T04:16:27.317Z,1033.66
2017-02-14T04:16:52.889Z,1033.7
2017-02-14T04:17:18.463Z,1033.63
2017-02-14T04:17:44.080Z,1033.65
2017-02-14T04:18:09.614Z,1033.64
2017-02-14T04:18:35.197Z,1033.62
2017-02-14T04:19:00.945Z,1033.62
2017-02-14T04:19:26.514Z,1033.64
2017-02-14T04:19:52.082Z,1033.65
2017-02-14T04:20:17.746Z,1033.68
2017-02-14T04:20:43.303Z,1033.65
2017-02-14T04:21:08.856Z,1033.61
2017-02-14T04:21:34.413Z,1033.65
2017-02-14T04:21:59.966Z,1033.66
2017-02-14T04:22:25.511Z,1033.64
2017-02-14T04:22:51.087Z,1033.63
2017-02-14T04:23:16.656Z,1033.67
2017-02-14T04:23:42.223Z,1033.62
2017-02-14T04:24:07.857Z,1033.6
2017-02-14T04:24:33.500Z,1033.57
2017-02-14T04:24:59.050Z,1033.55
2017-02-14T04:25:24.767Z,1033.57
2017-02-14T04:25:50.328Z,1033.61
2017-02-14T04:26:15.903Z,1033.55
2017-02-14T04:26:41.479Z,1033.53
2017-02-14T04:27:07.070Z,1033.63
2017-02-14T04:27:32.636Z,1033.53
2017-02-14T04:27:58.215Z,1033.59
2017-02-14T04:28:23.798Z,1033.53
2017-02-14T04:28:49.371Z,1033.52
2017-02-14T04:29:14.958Z,1033.55
2017-02-14T04:29:40.507Z,1033.56
2017-02-14T04:30:06.077Z,1033.56
2017-02-14T04:30:31.707Z,1033.56
2017-02-14T04:30:57.261Z,1033.53
2017-02-14T04:31:22.826Z,1033.54
2017-02-14T04:31:48.392Z,1033.53
2017-02-14T04:32:14.063Z,1033.47
2017-02-14T04:32:39.620Z,1033.54
2017-02-14T04:33:05.188Z,1033.49
2017-02-14T04:33:30.868Z,1033.43
2017-02-14T04:33:56.431Z,1033.51
2017-02-14T04:34:22.001Z,1033.49
2017-02-14T04:34:47.554Z,1033.46
2017-02-14T04:35:13.136Z,1033.44
2017-02-14T04:35:38.692Z,1033.47
2017-02-14T04:36:04.291Z,1033.44
2017-02-14T04:36:29.855Z,1033.44
2017-02-14T04:36:55.419Z,1033.46
2017-02-14T04:37:21.051Z,1033.43
2017-02-14T04:37:46.619Z,1033.36
2017-02-14T04:38:12.189Z,1033.42
2017-02-14T04:38:37.763Z,1033.39
2017-02-14T04:39:03.332Z,1033.37
2017-02-14T04:39:28.926Z,1033.37
2017-02-14T04:39:54.464Z,1033.38
2017-02-14T04:40:20.033Z,1033.38
2017-02-14T04:40:45.613Z,1033.36
2017-02-14T04:41:11.217Z,1033.4
2017-02-14T04:41:36.772Z,1033.39
2017-02-14T04:42:02.350Z,1033.37
2017-02-14T04:42:28.037Z,1033.35
2017-02-14T04:42:53.654Z,1033.38
2017-02-14T04:43:52.180Z,1033.33
2017-02-14T04:44:17.748Z,1033.32
2017-02-14T04:44:43.387Z,1033.33
2017-02-14T04:45:08.959Z,1033.3
2017-02-14T04:45:34.587Z,1033.32
2017-02-14T04:46:00.227Z,1033.35
2017-02-14T04:46:25.784Z,1033.32
2017-02-14T04:46:51.335Z,1033.3
2017-02-14T04:47:17.000Z,1033.29
2017-02-14T04:47:42.561Z,1033.31
2017-02-14T04:48:08.119Z,1033.28
2017-02-14T04:48:33.786Z,1033.31
2017-02-14T04:48:59.397Z,1033.25
2017-02-14T04:49:24.949Z,1033.25
2017-02-14T04:49:50.514Z,1033.26
2017-02-14T04:50:16.124Z,1033.22
2017-02-14T04:50:41.697Z,1033.25
2017-02-14T04:51:07.256Z,1033.25
2017-02-14T04:51:32.817Z,1033.22
2017-02-14T04:51:58.396Z,1033.23
2017-02-14T04:52:23.955Z,1033.24
2017-02-14T04:52:49.537Z,1033.19
2017-02-14T04:53:15.065Z,1033.2
2017-02-14T04:53:40.636Z,1033.12
2017-02-14T04:54:06.176Z,1033.18
2017-02-14T04:54:31.724Z,1033.2
2017-02-14T04:54:57.318Z,1033.14
2017-02-14T04:55:22.862Z,1033.13
2017-02-14T04:55:48.447Z,1033.13
2017-02-14T04:56:14.097Z,1033.21
2017-02-14T04:56:39.669Z,1033.17
2017-02-14T04:57:05.235Z,1033.19
2017-02-14T04:57:30.808Z,1033.18
2017-02-14T04:57:56.516Z,1033.16
2017-02-14T04:58:22.098Z,1033.19
2017-02-14T04:58:47.674Z,1033.08
2017-02-14T04:59:13.279Z,1033.16
2017-02-14T04:59:39.022Z,1033.16
2017-02-14T05:00:04.583Z,1033.16
2017-02-14T05:00:30.183Z,1033.11
2017-02-14T05:00:55.747Z,1033.1
2017-02-14T05:01:21.315Z,1033.09
2017-02-14T05:01:46.883Z,1033.15
2017-02-14T05:02:12.452Z,1033.15
2017-02-14T05:02:38.040Z,1033.15
2017-02-14T05:03:03.624Z,1033.13
2017-02-14T05:03:29.345Z,1033.11
2017-02-14T05:03:54.937Z,1033.1
2017-02-14T05:04:20.560Z,1033.1
2017-02-14T05:04:46.179Z,1033.13
2017-02-14T05:05:11.765Z,1033.18
2017-02-14T05:05:37.320Z,1033.21
2017-02-14T05:06:03.007Z,1033.16
2017-02-14T05:06:28.568Z,1033.2
2017-02-14T05:06:54.132Z,1033.23
2017-02-14T05:07:20.621Z,1033.22
2017-02-14T05:07:46.218Z,1033.23
2017-02-14T05:08:11.876Z,1033.25
2017-02-14T05:08:37.467Z,1033.27
2017-02-14T05:09:03.040Z,1033.28
2017-02-14T05:09:28.605Z,1033.29
2017-02-14T05:09:54.244Z,1033.26
2017-02-14T05:10:19.787Z,1033.31
2017-02-14T05:10:45.377Z,1033.23
2017-02-14T05:11:10.957Z,1033.29
2017-02-14T05:11:36.533Z,1033.28
2017-02-14T05:12:02.128Z,1033.29
2017-02-14T05:12:27.707Z,1033.34
2017-02-14T05:12:53.268Z,1033.31
2017-02-14T05:13:19.033Z,1033.35
2017-02-14T05:13:44.582Z,1033.32
2017-02-14T05:14:10.288Z,1033.36
2017-02-14T05:14:35.851Z,1033.36
2017-02-14T05:15:01.458Z,1033.4
2017-02-14T05:15:27.029Z,1033.39
2017-02-14T05:15:52.587Z,1033.4
2017-02-14T05:16:18.140Z,1033.43
2017-02-14T05:16:43.697Z,1033.36
2017-02-14T05:17:09.258Z,1033.39
2017-02-14T05:17:34.945Z,1033.39
2017-02-14T05:18:00.518Z,1033.37
2017-02-14T05:18:26.093Z,1033.35
2017-02-14T05:18:51.659Z,1033.37
2017-02-14T05:19:17.228Z,1033.39
2017-02-14T05:19:42.799Z,1033.34
2017-02-14T05:20:08.365Z,1033.39
2017-02-14T05:20:33.910Z,1033.41
2017-02-14T05:20:59.462Z,1033.42
2017-02-14T05:21:25.003Z,1033.4
2017-02-14T05:21:50.554Z,1033.39
2017-02-14T05:22:16.101Z,1033.44
2017-02-14T05:22:41.654Z,1033.38
2017-02-14T05:23:07.203Z,1033.42
2017-02-14T05:23:32.743Z,1033.41
2017-02-14T05:23:58.313Z,1033.37
2017-02-14T05:24:23.870Z,1033.36
2017-02-14T05:24:49.421Z,1033.37
2017-02-14T05:25:14.954Z,1033.41
2017-02-14T05:25:40.512Z,1033.39
2017-02-14T05:26:06.222Z,1033.39
2017-02-14T05:26:31.774Z,1033.38
2017-02-14T05:26:57.348Z,1033.39
2017-02-14T05:27:22.920Z,1033.42
2017-02-14T05:27:48.510Z,1033.34
2017-02-14T05:28:14.072Z,1033.35
2017-02-14T05:28:39.687Z,1033.32
2017-02-14T05:29:05.236Z,1033.35
2017-02-14T05:29:30.824Z,1033.32
2017-02-14T05:29:56.373Z,1033.36
2017-02-14T05:30:21.944Z,1033.32
2017-02-14T05:30:47.513Z,1033.29
2017-02-14T05:31:13.194Z,1033.31
2017-02-14T05:31:38.755Z,1033.36
2017-02-14T05:32:04.333Z,1033.31
2017-02-14T05:32:29.918Z,1033.32
2017-02-14T05:32:55.557Z,1033.34
2017-02-14T05:33:21.132Z,1033.34
2017-02-14T05:33:46.872Z,1033.33
2017-02-14T05:34:12.445Z,1033.29
2017-02-14T05:34:38.052Z,1033.29
2017-02-14T05:35:03.630Z,1033.27
2017-02-14T05:35:29.197Z,1033.29
2017-02-14T05:35:54.790Z,1033.24
2017-02-14T05:36:58.546Z,1033.24
2017-02-14T05:37:24.104Z,1033.24
2017-02-14T05:37:49.643Z,1033.23
2017-02-14T05:38:15.207Z,1033.26
2017-02-14T05:38:40.763Z,1033.27
2017-02-14T05:39:06.317Z,1033.22
2017-02-14T05:39:31.850Z,1033.23
2017-02-14T05:39:57.437Z,1033.25
2017-02-14T05:40:23.029Z,1033.24
2017-02-14T05:40:48.552Z,1033.24
2017-02-14T05:41:14.200Z,1033.21
2017-02-14T05:42:33.020Z,1033.19
2017-02-14T05:42:58.588Z,1033.23
2017-02-14T05:43:24.151Z,1033.26
2017-02-14T05:43:49.796Z,1033.24
2017-02-14T05:44:15.396Z,1033.2
2017-02-14T05:44:41.005Z,1033.21
2017-02-14T05:45:06.617Z,1033.2
2017-02-14T05:45:32.167Z,1033.2
2017-02-14T05:45:57.828Z,1033.25
2017-02-14T05:46:23.407Z,1033.23
2017-02-14T05:46:48.959Z,1033.23
2017-02-14T05:47:14.529Z,1033.23
2017-02-14T05:47:40.086Z,1033.22
2017-02-14T05:48:05.645Z,1033.26
2017-02-14T05:48:31.278Z,1033.22
2017-02-14T05:48:56.848Z,1033.26
2017-02-14T05:49:22.402Z,1033.28
2017-02-14T05:49:48.038Z,1033.27
2017-02-14T05:50:13.626Z,1033.28
2017-02-14T05:50:39.228Z,1033.29
2017-02-14T05:51:04.811Z,1033.32
2017-02-14T05:51:30.367Z,1033.34
2017-02-14T05:51:55.940Z,1033.36
2017-02-14T05:52:21.507Z,1033.36
2017-02-14T05:52:47.065Z,1033.39
2017-02-14T05:53:12.680Z,1033.41
2017-02-14T05:53:38.246Z,1033.4
2017-02-14T05:54:03.816Z,1033.39
2017-02-14T05:54:29.396Z,1033.46
2017-02-14T05:54:54.952Z,1033.39
2017-02-14T05:55:20.534Z,1033.39
2017-02-14T05:55:46.124Z,1033.43
2017-02-14T05:56:11.697Z,1033.42
2017-02-14T05:56:37.275Z,1033.44
2017-02-14T05:57:02.954Z,1033.43
2017-02-14T05:57:28.523Z,1033.41
2017-02-14T05:57:54.082Z,1033.44
2017-02-14T05:58:19.778Z,1033.44
2017-02-14T05:58:45.339Z,1033.47
2017-02-14T05:59:10.918Z,1033.43
2017-02-14T05:59:36.625Z,1033.47
2017-02-14T06:00:02.207Z,1033.44
2017-02-14T06:00:27.785Z,1033.43
2017-02-14T06:00:53.365Z,1033.39
2017-02-14T06:01:18.975Z,1033.45
2017-02-14T06:01:44.548Z,1033.45
2017-02-14T06:02:10.103Z,1033.45
2017-02-14T06:02:35.692Z,1033.49
2017-02-14T06:03:01.257Z,1033.47
2017-02-14T06:03:26.825Z,1033.45
2017-02-14T06:03:52.378Z,1033.47
2017-02-14T06:04:17.939Z,1033.49
2017-02-14T06:04:43.498Z,1033.41
2017-02-14T06:05:09.065Z,1033.46
2017-02-14T06:05:34.607Z,1033.4
2017-02-14T06:06:00.166Z,1033.42
2017-02-14T06:06:25.723Z,1033.42
2017-02-14T06:06:51.284Z,1033.4
2017-02-14T06:07:16.853Z,1033.43
2017-02-14T06:07:42.547Z,1033.4
2017-02-14T06:08:08.111Z,1033.39
2017-02-14T06:08:33.657Z,1033.42
2017-02-14T06:08:59.351Z,1033.42
2017-02-14T06:09:24.906Z,1033.4
2017-02-14T06:09:50.490Z,1033.42
2017-02-14T06:10:16.149Z,1033.43
2017-02-14T06:10:41.692Z,1033.42
2017-02-14T06:11:07.236Z,1033.43
2017-02-14T06:11:32.815Z,1033.43
2017-02-14T06:11:58.376Z,1033.45
2017-02-14T06:12:23.910Z,1033.39
2017-02-14T06:12:49.463Z,1033.39
2017-02-14T06:13:58.057Z,1033.36
2017-02-14T06:14:23.639Z,1033.37
2017-02-14T06:14:49.219Z,1033.36
2017-02-14T06:15:14.787Z,1033.38
2017-02-14T06:15:40.347Z,1033.36
2017-02-14T06:16:05.905Z,1033.39
2017-02-14T06:17:03.962Z,1033.43
2017-02-14T06:17:29.559Z,1033.39
2017-02-14T06:17:55.213Z,1033.38
2017-02-14T06:18:20.785Z,1033.4
2017-02-14T06:18:46.350Z,1033.43
2017-02-14T06:19:11.907Z,1033.42
2017-02-14T06:19:37.609Z,1033.44
2017-02-14T06:20:03.178Z,1033.41
2017-02-14T06:20:28.882Z,1033.45
2017-02-14T06:20:54.489Z,1033.43
2017-02-14T06:21:20.060Z,1033.45
2017-02-14T06:21:45.688Z,1033.46
2017-02-14T06:22:11.246Z,1033.46
2017-02-14T06:22:36.825Z,1033.46
2017-02-14T06:23:02.468Z,1033.5
2017-02-14T06:23:28.060Z,1033.47
2017-02-14T06:23:53.651Z,1033.45
2017-02-14T06:24:19.217Z,1033.42
2017-02-14T06:24:44.812Z,1033.49
2017-02-14T06:25:10.400Z,1033.46
2017-02-14T06:25:35.973Z,1033.45
2017-02-14T06:26:01.567Z,1033.46
2017-02-14T06:26:27.195Z,1033.4
2017-02-14T06:28:23.818Z,1033.42
2017-02-14T06:28:49.473Z,1033.42
2017-02-14T06:29:15.019Z,1033.41
2017-02-14T06:29:40.697Z,1033.44
2017-02-14T06:30:06.254Z,1033.43
2017-02-14T06:30:31.924Z,1033.49
2017-02-14T06:30:57.578Z,1033.46
2017-02-14T06:31:25.301Z,1033.49
2017-02-14T06:31:50.995Z,1033.48
2017-02-14T06:32:16.654Z,1033.57
2017-02-14T06:32:42.204Z,1033.53
2017-02-14T06:33:07.847Z,1033.54
2017-02-14T06:33:33.419Z,1033.54
2017-02-14T06:33:59.103Z,1033.6
2017-02-14T06:34:24.797Z,1033.55
2017-02-14T06:34:50.502Z,1033.6
2017-02-14T06:35:16.129Z,1033.56
2017-02-14T06:35:41.796Z,1033.55
2017-02-14T06:36:07.363Z,1033.57
2017-02-14T06:36:33.037Z,1033.63
2017-02-14T06:36:58.670Z,1033.61
2017-02-14T06:37:24.249Z,1033.59
2017-02-14T06:37:49.918Z,1033.61
2017-02-14T06:38:15.497Z,1033.59
2017-02-14T06:38:41.158Z,1033.62
2017-02-14T06:39:06.720Z,1033.58
2017-02-14T06:39:32.300Z,1033.62
2017-02-14T06:39:58.028Z,1033.61
2017-02-14T06:40:23.680Z,1033.57
2017-02-14T06:40:49.233Z,1033.59
2017-02-14T06:41:14.819Z,1033.57
2017-02-14T06:41:40.393Z,1033.55
2017-02-14T06:42:05.971Z,1033.59
2017-02-14T06:42:31.528Z,1033.57
2017-02-14T06:42:57.171Z,1033.61
2017-02-14T06:43:22.768Z,1033.58
2017-02-14T06:43:48.325Z,1033.64
2017-02-14T06:44:14.044Z,1033.61
2017-02-14T06:44:39.598Z,1033.6
2017-02-14T06:45:05.254Z,1033.6
2017-02-14T06:45:30.967Z,1033.64
2017-02-14T06:45:56.769Z,1033.69
2017-02-14T06:46:22.246Z,1033.66
2017-02-14T06:46:47.829Z,1033.62
2017-02-14T06:47:13.396Z,1033.64
2017-02-14T06:47:40.280Z,1033.66
2017-02-14T06:48:05.845Z,1033.71
2017-02-14T06:48:31.397Z,1033.69
2017-02-14T06:48:57.073Z,1033.69
2017-02-14T06:49:22.663Z,1033.71
2017-02-14T06:49:48.344Z,1033.71
2017-02-14T06:50:13.939Z,1033.76
2017-02-14T06:51:12.299Z,1033.73
2017-02-14T06:51:37.876Z,1033.72
2017-02-14T06:52:03.448Z,1033.75
2017-02-14T06:52:29.006Z,1033.74
2017-02-14T06:52:54.580Z,1033.75
2017-02-14T06:53:20.212Z,1033.76
2017-02-14T06:53:45.786Z,1033.77
2017-02-14T06:54:11.346Z,1033.76
2017-02-14T06:54:36.972Z,1033.8
2017-02-14T06:55:02.558Z,1033.78
2017-02-14T06:55:28.188Z,1033.79
2017-02-14T06:55:53.755Z,1033.76
2017-02-14T06:56:19.434Z,1033.77
2017-02-14T06:56:45.027Z,1033.77
2017-02-14T06:58:26.126Z,1033.76
2017-02-14T06:58:51.777Z,1033.77
2017-02-14T06:59:17.464Z,1033.78
2017-02-14T06:59:43.029Z,1033.77
2017-02-14T07:00:08.627Z,1033.76
2017-02-14T07:00:34.290Z,1033.76
2017-02-14T07:01:42.576Z,1033.74
2017-02-14T07:02:08.146Z,1033.76
2017-02-14T07:02:33.722Z,1033.77
2017-02-14T07:02:59.292Z,1033.77
2017-02-14T07:03:24.840Z,1033.77
2017-02-14T07:03:50.456Z,1033.73
2017-02-14T07:04:16.103Z,1033.78
2017-02-14T07:04:41.669Z,1033.78
2017-02-14T07:05:07.222Z,1033.77
2017-02-14T07:05:32.786Z,1033.76
2017-02-14T07:05:58.348Z,1033.79
2017-02-14T07:06:23.917Z,1033.72
2017-02-14T07:06:49.467Z,1033.77
2017-02-14T07:07:15.053Z,1033.75
2017-02-14T07:07:40.658Z,1033.74
2017-02-14T07:08:06.228Z,1033.78
2017-02-14T07:08:31.797Z,1033.74
2017-02-14T07:08:57.368Z,1033.72
2017-02-14T07:09:23.092Z,1033.72
2017-02-14T07:09:48.647Z,1033.74
2017-02-14T07:10:14.239Z,1033.72
2017-02-14T07:10:39.808Z,1033.69
2017-02-14T07:11:05.426Z,1033.71
2017-02-14T07:11:30.989Z,1033.69
2017-02-14T07:11:56.628Z,1033.71
2017-02-14T07:12:22.257Z,1033.72
2017-02-14T07:12:47.830Z,1033.72
2017-02-14T07:13:13.453Z,1033.72
2017-02-14T07:13:39.011Z,1033.7
2017-02-14T07:14:04.643Z,1033.74
2017-02-14T07:14:30.237Z,1033.73
2017-02-14T07:14:55.870Z,1033.73
2017-02-14T07:15:21.437Z,1033.73
2017-02-14T07:15:46.980Z,1033.7
2017-02-14T07:16:12.545Z,1033.73
2017-02-14T07:16:38.107Z,1033.72
2017-02-14T07:17:03.656Z,1033.71
2017-02-14T07:17:29.245Z,1033.74
2017-02-14T07:17:54.800Z,1033.78
2017-02-14T07:18:20.351Z,1033.72
2017-02-14T07:18:45.917Z,1033.75
2017-02-14T07:19:11.499Z,1033.79
2017-02-14T07:19:37.043Z,1033.79
2017-02-14T07:20:02.633Z,1033.84
2017-02-14T07:20:28.218Z,1033.87
2017-02-14T07:20:53.845Z,1033.89
2017-02-14T07:21:19.466Z,1033.87
2017-02-14T07:21:45.029Z,1033.89
2017-02-14T07:22:48.498Z,1033.82
2017-02-14T07:23:14.061Z,1033.87
2017-02-14T07:23:39.653Z,1033.9
2017-02-14T07:24:05.217Z,1033.91
2017-02-14T07:24:30.795Z,1033.86
2017-02-14T07:24:56.421Z,1033.87
2017-02-14T07:25:22.041Z,1033.89
2017-02-14T07:25:47.605Z,1033.89
2017-02-14T07:26:13.178Z,1033.87
2017-02-14T07:26:39.500Z,1033.9
2017-02-14T07:27:05.045Z,1033.89
2017-02-14T07:27:30.586Z,1033.9
2017-02-14T07:27:56.236Z,1033.86
2017-02-14T07:28:21.792Z,1033.84
2017-02-14T07:28:47.364Z,1033.85
2017-02-14T07:29:12.903Z,1033.86
2017-02-14T07:29:38.474Z,1033.84
2017-02-14T07:30:04.018Z,1033.84
2017-02-14T07:30:29.603Z,1033.86
2017-02-14T07:30:55.214Z,1033.84
2017-02-14T07:31:20.791Z,1033.84
2017-02-14T07:31:46.370Z,1033.77
2017-02-14T07:32:11.920Z,1033.81
2017-02-14T07:32:37.455Z,1033.81
2017-02-14T07:33:03.105Z,1033.83
2017-02-14T07:33:28.691Z,1033.83
2017-02-14T07:34:47.520Z,1033.86
2017-02-14T07:35:15.296Z,1033.89
2017-02-14T07:35:42.476Z,1033.91
2017-02-14T07:37:48.286Z,1033.93
2017-02-14T07:38:13.884Z,1033.93
2017-02-14T07:38:39.455Z,1033.95
2017-02-14T07:39:05.017Z,1033.93
2017-02-14T07:39:30.577Z,1033.93
2017-02-14T07:39:56.145Z,1033.91
2017-02-14T07:40:21.714Z,1033.9
2017-02-14T07:40:47.394Z,1033.91
2017-02-14T07:41:12.962Z,1033.9
2017-02-14T07:41:38.567Z,1033.94
2017-02-14T07:42:04.100Z,1033.86
2017-02-14T07:42:29.647Z,1033.9
2017-02-14T07:42:55.192Z,1033.95
2017-02-14T07:43:20.756Z,1033.96
2017-02-14T07:43:46.303Z,1033.99
2017-02-14T07:44:11.848Z,1034
2017-02-14T07:44:37.496Z,1033.99
2017-02-14T07:45:03.066Z,1033.97
2017-02-14T07:45:28.675Z,1033.97
2017-02-14T07:45:54.231Z,1033.97
2017-02-14T07:46:19.788Z,1034.01
2017-02-14T07:46:45.465Z,1034.02
2017-02-14T07:47:11.039Z,1034
2017-02-14T07:47:36.609Z,1033.94
2017-02-14T07:48:02.190Z,1033.97
2017-02-14T07:48:27.744Z,1033.97
2017-02-14T07:48:53.325Z,1033.96
2017-02-14T07:49:18.885Z,1033.92
2017-02-14T07:49:44.502Z,1033.98
2017-02-14T07:50:10.076Z,1033.97
2017-02-14T07:50:35.654Z,1033.91
2017-02-14T07:51:01.240Z,1033.99
2017-02-14T07:51:26.798Z,1034.03
2017-02-14T07:51:52.492Z,1033.98
2017-02-14T07:52:18.127Z,1034.01
2017-02-14T07:52:43.692Z,1034.01
2017-02-14T07:53:09.254Z,1033.98
2017-02-14T07:53:34.870Z,1033.98
2017-02-14T07:54:00.444Z,1034.04
2017-02-14T07:54:28.196Z,1033.99
2017-02-14T07:54:53.765Z,1034.03
2017-02-14T07:55:19.312Z,1034.04
2017-02-14T07:55:44.878Z,1034.02
2017-02-14T07:56:10.432Z,1034.05
2017-02-14T07:56:36.125Z,1034.01
2017-02-14T07:57:01.857Z,1034.06
2017-02-14T07:57:27.497Z,1034.04
2017-02-14T07:57:56.058Z,1034.03
2017-02-14T07:58:21.642Z,1034.04
2017-02-14T07:58:47.199Z,1034.04
2017-02-14T07:59:16.040Z,1034.1
2017-02-14T07:59:41.716Z,1034.12
2017-02-14T08:00:07.318Z,1034.09
2017-02-14T08:00:32.905Z,1034.06
2017-02-14T08:00:58.489Z,1034.04
2017-02-14T08:01:24.056Z,1034.11
2017-02-14T08:01:49.628Z,1034.06
2017-02-14T08:02:15.234Z,1034.08
2017-02-14T08:02:40.817Z,1034.07
2017-02-14T08:03:06.414Z,1034.04
2017-02-14T08:03:32.055Z,1034.07
2017-02-14T08:03:57.611Z,1034.06
2017-02-14T08:04:23.169Z,1034.06
2017-02-14T08:04:48.836Z,1034.07
2017-02-14T08:05:14.415Z,1034.06
2017-02-14T08:05:39.987Z,1034.11
2017-02-14T08:06:05.571Z,1034.08
2017-02-14T08:06:31.121Z,1034.04
2017-02-14T08:06:56.714Z,1034.05
2017-02-14T08:07:22.298Z,1034.05
2017-02-14T08:07:47.881Z,1034.05
2017-02-14T08:08:13.483Z,1034.06
2017-02-14T08:08:39.122Z,1034.05
2017-02-14T08:09:04.709Z,1034.06
2017-02-14T08:09:30.300Z,1034.08
2017-02-14T08:09:55.851Z,1034.08
2017-02-14T08:10:21.403Z,1034.14
2017-02-14T08:10:46.959Z,1034.17
2017-02-14T08:11:12.587Z,1034.12
2017-02-14T08:11:38.255Z,1034.16
2017-02-14T08:12:03.812Z,1034.16
2017-02-14T08:12:29.378Z,1034.18
2017-02-14T08:12:55.025Z,1034.16
2017-02-14T08:13:20.643Z,1034.15
2017-02-14T08:13:46.223Z,1034.1
2017-02-14T08:14:11.902Z,1034.16
2017-02-14T08:14:37.485Z,1034.15
2017-02-14T08:15:03.276Z,1034.09
2017-02-14T08:15:28.847Z,1034.09
2017-02-14T08:15:54.427Z,1034.14
2017-02-14T08:16:20.068Z,1034.16
2017-02-14T08:16:45.650Z,1034.12
2017-02-14T08:17:11.215Z,1034.14
2017-02-14T08:17:36.792Z,1034.13
2017-02-14T08:18:02.389Z,1034.12
2017-02-14T08:18:27.964Z,1034.08
2017-02-14T08:18:53.559Z,1034.11
2017-02-14T08:19:19.128Z,1034.1
2017-02-14T08:19:44.681Z,1034.08
2017-02-14T08:20:10.248Z,1034.05
2017-02-14T08:20:35.792Z,1034.07
2017-02-14T08:21:01.413Z,1034.06
2017-02-14T08:21:26.936Z,1034.06
2017-02-14T08:21:52.528Z,1034.04
2017-02-14T08:22:18.083Z,1034.05
2017-02-14T08:22:43.736Z,1034.05
2017-02-14T08:23:09.303Z,1034.11
2017-02-14T08:23:34.865Z,1034.08
2017-02-14T08:24:00.435Z,1034.01
2017-02-14T08:24:26.005Z,1034.06
2017-02-14T08:24:51.656Z,1034.06
2017-02-14T08:25:17.245Z,1034.07
2017-02-14T08:25:42.795Z,1034.09
2017-02-14T08:26:08.412Z,1034.06
2017-02-14T08:26:34.167Z,1034.08
2017-02-14T08:26:59.861Z,1034.11
2017-02-14T08:27:25.521Z,1034.08
2017-02-14T08:27:51.127Z,1034.08
2017-02-14T08:28:16.698Z,1034.06
2017-02-14T08:28:42.286Z,1034.07
2017-02-14T08:29:07.844Z,1034.04
2017-02-14T08:29:33.450Z,1034.05
2017-02-14T08:29:59.275Z,1034.03
2017-02-14T08:30:24.957Z,1034.03
2017-02-14T08:30:50.613Z,1034.06
2017-02-14T08:31:16.165Z,1034.05
2017-02-14T08:31:41.738Z,1034.02
2017-02-14T08:32:07.280Z,1034.02
2017-02-14T08:32:32.837Z,1034.03
2017-02-14T08:32:58.404Z,1034.01
2017-02-14T08:34:17.451Z,1033.93
2017-02-14T08:34:43.010Z,1033.98
2017-02-14T08:35:08.607Z,1033.95
2017-02-14T08:37:15.963Z,1033.93
2017-02-14T08:37:41.538Z,1033.93
2017-02-14T08:38:07.150Z,1033.91
2017-02-14T08:38:32.704Z,1033.9
2017-02-14T08:38:58.254Z,1033.94
2017-02-14T08:39:23.793Z,1033.91
2017-02-14T08:39:49.333Z,1033.94
2017-02-14T08:40:14.978Z,1033.93
2017-02-14T08:40:40.577Z,1033.95
2017-02-14T08:41:06.123Z,1033.92
2017-02-14T08:41:31.682Z,1033.92
2017-02-14T08:41:57.332Z,1033.99
2017-02-14T08:42:22.892Z,1033.98
2017-02-14T08:42:48.465Z,1033.96
2017-02-14T08:43:14.062Z,1033.97
2017-02-14T08:43:39.602Z,1034.01
2017-02-14T08:44:05.153Z,1033.97
2017-02-14T08:44:30.693Z,1034.01
2017-02-14T08:44:56.246Z,1033.98
2017-02-14T08:45:21.823Z,1033.98
2017-02-14T08:45:47.381Z,1033.99
2017-02-14T08:46:12.956Z,1033.99
2017-02-14T08:46:38.503Z,1033.97
2017-02-14T08:47:04.048Z,1033.98
2017-02-14T08:47:29.612Z,1033.99
2017-02-14T08:47:55.217Z,1034
2017-02-14T08:48:20.773Z,1034
2017-02-14T08:48:46.429Z,1033.98
2017-02-14T08:49:11.991Z,1033.99
2017-02-14T08:49:37.753Z,1034.03
2017-02-14T08:50:03.347Z,1034
2017-02-14T08:50:29.138Z,1033.96
2017-02-14T08:50:54.810Z,1033.97
2017-02-14T08:51:20.378Z,1033.95
2017-02-14T08:51:45.943Z,1033.98
2017-02-14T08:52:11.506Z,1033.98
2017-02-14T08:52:37.139Z,1034
2017-02-14T08:53:02.724Z,1034.03
2017-02-14T08:53:28.285Z,1034.03
2017-02-14T08:53:53.999Z,1034
2017-02-14T08:54:19.599Z,1034
2017-02-14T08:54:45.145Z,1033.94
2017-02-14T08:55:10.746Z,1033.98
2017-02-14T08:55:36.311Z,1033.96
2017-02-14T08:56:01.876Z,1033.96
2017-02-14T08:56:27.576Z,1033.92
2017-02-14T08:56:53.138Z,1033.97
2017-02-14T08:57:18.893Z,1033.96
2017-02-14T08:57:44.454Z,1033.92
2017-02-14T08:58:10.069Z,1033.91
2017-02-14T08:58:35.628Z,1033.92
2017-02-14T08:59:01.197Z,1033.93
2017-02-14T08:59:26.779Z,1033.91
2017-02-14T08:59:52.373Z,1033.9
2017-02-14T09:00:17.994Z,1033.92
2017-02-14T09:00:43.562Z,1033.9
2017-02-14T09:01:09.197Z,1033.89
2017-02-14T09:01:34.783Z,1033.9
2017-02-14T09:02:00.348Z,1033.88
2017-02-14T09:02:25.963Z,1033.91
2017-02-14T09:02:51.561Z,1033.86
2017-02-14T09:03:17.103Z,1033.86
2017-02-14T09:03:42.714Z,1033.89
2017-02-14T09:04:08.332Z,1033.86
2017-02-14T09:04:33.891Z,1033.83
2017-02-14T09:04:59.451Z,1033.86
2017-02-14T09:05:25.016Z,1033.84
2017-02-14T09:05:50.565Z,1033.82
2017-02-14T09:06:16.168Z,1033.85
2017-02-14T09:06:41.806Z,1033.84
2017-02-14T09:07:07.360Z,1033.85
2017-02-14T09:07:32.957Z,1033.81
2017-02-14T09:07:58.604Z,1033.83
2017-02-14T09:08:24.184Z,1033.84
2017-02-14T09:08:49.969Z,1033.88
2017-02-14T09:09:15.548Z,1033.85
2017-02-14T09:09:41.216Z,1033.85
2017-02-14T09:10:06.803Z,1033.85
2017-02-14T09:10:32.378Z,1033.86
2017-02-14T09:10:58.042Z,1033.87
2017-02-14T09:11:23.592Z,1033.87
2017-02-14T09:11:49.156Z,1033.86
2017-02-14T09:12:14.738Z,1033.92
2017-02-14T09:12:40.442Z,1033.89
2017-02-14T09:13:06.099Z,1033.85
2017-02-14T09:13:31.674Z,1033.83
2017-02-14T09:13:57.243Z,1033.85
2017-02-14T09:14:22.809Z,1033.91
2017-02-14T09:14:48.381Z,1033.92
2017-02-14T09:15:14.013Z,1033.89
2017-02-14T09:15:39.597Z,1033.94
2017-02-14T09:16:05.197Z,1033.93
2017-02-14T09:16:30.793Z,1033.89
2017-02-14T09:16:56.359Z,1033.93
2017-02-14T09:17:21.925Z,1033.95
2017-02-14T09:17:47.493Z,1033.95
2017-02-14T09:18:13.066Z,1033.91
2017-02-14T09:18:38.621Z,1033.94
2017-02-14T09:19:04.261Z,1033.91
2017-02-14T09:19:29.847Z,1033.91
2017-02-14T09:19:55.434Z,1033.92
2017-02-14T09:20:21.098Z,1033.94
2017-02-14T09:20:46.657Z,1033.94
2017-02-14T09:21:12.279Z,1033.93
2017-02-14T09:21:37.863Z,1033.9
2017-02-14T09:22:03.437Z,1033.93
2017-02-14T09:22:28.997Z,1033.93
2017-02-14T09:22:54.632Z,1033.99
2017-02-14T09:23:20.187Z,1033.99
2017-02-14T09:23:45.747Z,1033.96
2017-02-14T09:24:11.358Z,1033.98
2017-02-14T09:24:36.931Z,1033.98
2017-02-14T09:25:02.499Z,1033.95